Time,TemperatureF,DewpointF,PressureIn,WindDirection,WindDirectionDegrees,WindSpeedMPH,WindSpeedGustMPH,Humidity,HourlyPrecipIn,Conditions,Clouds,dailyrainin,SoftwareType,DateUTC
2013-02-11 00:01:00,2.0,-17.0,-100.00,North,0,4.0,10.0,40,-99.99,,,-99.99,,2013-02-11 07:01:00,
2013-02-11 00:11:00,2.0,-17.0,-100.00,North,0,4.0,10.0,40,-99.99,,,-99.99,,2013-02-11 07:11:00,
2013-02-11 00:21:00,2.0,-18.0,-100.00,North,0,4.0,13.0,38,-99.99,,,-99.99,,2013-02-11 07:21:00,
2013-02-11 00:32:00,2.0,-20.0,-100.00,NNW,342,5.0,10.0,34,-99.99,,,-99.99,,2013-02-11 07:32:00,
2013-02-11 00:41:00,2.0,-20.0,-100.00,NNW,342,5.0,10.0,34,-99.99,,,-99.99,,2013-02-11 07:41:00,
2013-02-11 00:52:00,2.0,-20.0,-100.00,North,349,8.0,13.0,33,-99.99,,,-99.99,,2013-02-11 07:52:00,
2013-02-11 01:01:00,2.0,-20.0,-100.00,North,2,7.0,11.0,33,-99.99,,,-99.99,,2013-02-11 08:01:00,
2013-02-11 01:11:00,2.0,-20.0,-100.00,North,2,7.0,11.0,33,-99.99,,,-99.99,,2013-02-11 08:11:00,
2013-02-11 01:21:00,1.0,-21.0,-100.00,North,8,5.0,8.0,34,-99.99,,,-99.99,,2013-02-11 08:21:00,
2013-02-11 01:31:00,2.0,-20.0,-100.00,NNE,24,8.0,14.0,33,-99.99,,,-99.99,,2013-02-11 08:31:00,
2013-02-11 01:42:00,2.0,-20.0,-100.00,NNE,24,8.0,14.0,33,-99.99,,,-99.99,,2013-02-11 08:42:00,
2013-02-11 01:52:00,2.0,-20.0,-100.00,North,7,10.0,14.0,33,-99.99,,,-99.99,,2013-02-11 08:52:00,
2013-02-11 02:01:00,2.0,-21.0,-100.00,North,9,11.0,15.0,32,-99.99,,,-99.99,,2013-02-11 09:01:00,
2013-02-11 02:12:00,2.0,-21.0,-100.00,North,9,11.0,15.0,32,-99.99,,,-99.99,,2013-02-11 09:12:00,
2013-02-11 02:31:00,2.0,-21.0,-100.00,North,3,8.0,13.0,32,-99.99,,,-99.99,,2013-02-11 09:31:00,
2013-02-11 02:41:00,2.0,-21.0,-100.00,North,3,8.0,13.0,32,-99.99,,,-99.99,,2013-02-11 09:41:00,
2013-02-11 02:52:00,2.0,-22.0,-100.00,North,9,9.0,12.0,30,-99.99,,,-99.99,,2013-02-11 09:52:00,
2013-02-11 03:01:00,1.0,-22.0,-100.00,North,2,8.0,11.0,31,-99.99,,,-99.99,,2013-02-11 10:01:00,
2013-02-11 03:21:00,1.0,-22.0,-100.00,NNE,17,6.0,10.0,31,-99.99,,,-99.99,,2013-02-11 10:21:00,
2013-02-11 03:31:00,0.0,-25.0,-100.00,ENE,62,2.0,7.0,29,-99.99,,,-99.99,,2013-02-11 10:31:00,
2013-02-11 03:41:00,0.0,-25.0,-100.00,ENE,62,2.0,7.0,29,-99.99,,,-99.99,,2013-02-11 10:41:00,
2013-02-11 03:52:00,0.0,-24.0,-100.00,NE,55,2.0,4.0,30,-99.99,,,-99.99,,2013-02-11 10:52:00,
2013-02-11 04:01:00,0.0,-24.0,-100.00,NNE,32,4.0,7.0,30,-99.99,,,-99.99,,2013-02-11 11:01:00,
2013-02-11 04:11:00,0.0,-99.9,-100.00,NNE,32,4.0,7.0,30,-99.99,,,-99.99,,2013-02-11 11:11:00,
2013-02-11 04:22:00,0.0,-99.9,-100.00,NNE,32,5.0,7.0,30,-99.99,,,-99.99,,2013-02-11 11:22:00,
2013-02-11 04:32:00,0.0,-25.0,-100.00,NE,37,4.0,6.0,29,-99.99,,,-99.99,,2013-02-11 11:32:00,
2013-02-11 04:42:00,0.0,-25.0,-100.00,NE,37,4.0,6.0,29,-99.99,,,-99.99,,2013-02-11 11:42:00,
2013-02-11 04:52:00,0.0,-25.0,-100.00,NE,37,3.0,5.0,29,-99.99,,,-99.99,,2013-02-11 11:52:00,
2013-02-11 05:02:00,1.0,-24.0,-100.00,NE,53,2.0,4.0,29,-99.99,,,-99.99,,2013-02-11 12:02:00,
2013-02-11 05:31:00,1.0,-24.0,-100.00,WSW,241,2.0,5.0,29,-99.99,,,-99.99,,2013-02-11 12:31:00,
2013-02-11 05:42:00,1.0,-24.0,-100.00,WSW,241,2.0,5.0,29,-99.99,,,-99.99,,2013-02-11 12:42:00,
2013-02-11 05:52:00,0.0,-25.0,-100.00,WSW,257,2.0,5.0,28,-99.99,,,-99.99,,2013-02-11 12:52:00,
2013-02-11 06:01:00,0.0,-25.0,-100.00,West,263,4.0,7.0,29,-99.99,,,-99.99,,2013-02-11 13:01:00,
2013-02-11 06:12:00,0.0,-99.9,-100.00,West,263,4.0,7.0,29,-99.99,,,-99.99,,2013-02-11 13:12:00,
2013-02-11 06:22:00,0.0,-99.9,-100.00,West,272,5.0,7.0,29,-99.99,,,-99.99,,2013-02-11 13:22:00,
2013-02-11 06:32:00,0.0,-24.0,-100.00,WNW,283,5.0,8.0,30,-99.99,,,-99.99,,2013-02-11 13:32:00,
2013-02-11 06:41:00,0.0,-24.0,-100.00,WNW,283,5.0,8.0,30,-99.99,,,-99.99,,2013-02-11 13:41:00,
2013-02-11 06:52:00,0.0,-25.0,-100.00,West,274,5.0,7.0,29,-99.99,,,-99.99,,2013-02-11 13:52:00,
2013-02-11 07:01:00,0.0,-25.0,-100.00,West,275,4.0,6.0,29,-99.99,,,-99.99,,2013-02-11 14:01:00,
2013-02-11 07:12:00,0.0,-99.9,-100.00,West,275,4.0,6.0,29,-99.99,,,-99.99,,2013-02-11 14:12:00,
2013-02-11 07:21:00,0.0,-24.0,-100.00,West,271,4.0,6.0,30,-99.99,,,-99.99,,2013-02-11 14:21:00,
2013-02-11 07:32:00,0.0,-19.0,-100.00,West,260,3.0,7.0,39,-99.99,,,-99.99,,2013-02-11 14:32:00,
2013-02-11 07:42:00,0.0,-19.0,-100.00,West,260,3.0,7.0,39,-99.99,,,-99.99,,2013-02-11 14:42:00,
2013-02-11 07:52:00,-1.0,-14.0,-100.00,SW,231,3.0,6.0,53,-99.99,,,-99.99,,2013-02-11 14:52:00,
2013-02-11 08:01:00,-1.0,-15.0,-100.00,West,261,4.0,6.0,51,-99.99,,,-99.99,,2013-02-11 15:01:00,
2013-02-11 08:11:00,-1.0,-15.0,-100.00,West,261,4.0,6.0,51,-99.99,,,-99.99,,2013-02-11 15:11:00,
2013-02-11 08:22:00,0.0,-16.0,-100.00,West,260,3.0,6.0,46,-99.99,,,-99.99,,2013-02-11 15:22:00,
2013-02-11 08:32:00,1.0,-15.0,-100.00,West,266,3.0,6.0,45,-99.99,,,-99.99,,2013-02-11 15:32:00,
2013-02-11 08:42:00,1.0,-15.0,-100.00,West,266,3.0,6.0,45,-99.99,,,-99.99,,2013-02-11 15:42:00,
2013-02-11 08:52:00,1.0,-14.0,-100.00,WSW,249,3.0,6.0,47,-99.99,,,-99.99,,2013-02-11 15:52:00,
2013-02-11 09:01:00,2.0,-13.0,-100.00,SW,236,2.0,5.0,49,-99.99,,,-99.99,,2013-02-11 16:01:00,
2013-02-11 09:11:00,2.0,-13.0,-100.00,SW,236,2.0,5.0,49,-99.99,,,-99.99,,2013-02-11 16:11:00,
2013-02-11 09:21:00,2.0,-12.0,-100.00,SW,231,2.0,7.0,51,-99.99,,,-99.99,,2013-02-11 16:21:00,
2013-02-11 09:31:00,2.0,-12.0,-100.00,WSW,244,2.0,8.0,51,-99.99,,,-99.99,,2013-02-11 16:31:00,
2013-02-11 09:42:00,2.0,-12.0,-100.00,WSW,244,2.0,8.0,51,-99.99,,,-99.99,,2013-02-11 16:42:00,
2013-02-11 09:52:00,3.0,-10.0,-100.00,SSE,168,2.0,6.0,54,-99.99,,,-99.99,,2013-02-11 16:52:00,
2013-02-11 10:01:00,3.0,-9.0,-100.00,WSW,258,3.0,11.0,56,-99.99,,,-99.99,,2013-02-11 17:01:00,
2013-02-11 10:11:00,3.0,-9.0,-100.00,WSW,258,3.0,11.0,56,-99.99,,,-99.99,,2013-02-11 17:11:00,
2013-02-11 10:21:00,4.0,-10.0,-100.00,SSE,162,3.0,12.0,51,-99.99,,,-99.99,,2013-02-11 17:21:00,
2013-02-11 10:32:00,5.0,-10.0,-100.00,SSE,154,3.0,10.0,48,-99.99,,,-99.99,,2013-02-11 17:32:00,
2013-02-11 10:42:00,5.0,-10.0,-100.00,SSE,154,3.0,10.0,48,-99.99,,,-99.99,,2013-02-11 17:42:00,
2013-02-11 10:52:00,5.0,-10.0,-100.00,West,266,3.0,10.0,49,-99.99,,,-99.99,,2013-02-11 17:52:00,
2013-02-11 11:01:00,5.0,-10.0,-100.00,WNW,288,5.0,16.0,50,-99.99,,,-99.99,,2013-02-11 18:01:00,
2013-02-11 11:11:00,5.0,-10.0,-100.00,WNW,288,5.0,16.0,50,-99.99,,,-99.99,,2013-02-11 18:11:00,
2013-02-11 11:21:00,5.0,-8.0,-100.00,NW,312,5.0,18.0,53,-99.99,,,-99.99,,2013-02-11 18:21:00,
2013-02-11 11:32:00,6.0,-9.0,-100.00,WNW,287,4.0,11.0,49,-99.99,,,-99.99,,2013-02-11 18:32:00,
2013-02-11 11:42:00,6.0,-9.0,-100.00,WNW,287,4.0,11.0,49,-99.99,,,-99.99,,2013-02-11 18:42:00,
2013-02-11 11:53:00,6.0,-10.0,-100.00,West,273,5.0,14.0,47,-99.99,,,-99.99,,2013-02-11 18:53:00,
2013-02-11 12:01:00,6.0,-9.0,-100.00,SW,233,4.0,14.0,49,-99.99,,,-99.99,,2013-02-11 19:01:00,
2013-02-11 12:11:00,6.0,-9.0,-100.00,SW,233,4.0,14.0,49,-99.99,,,-99.99,,2013-02-11 19:11:00,
2013-02-11 12:21:00,8.0,-8.0,-100.00,WNW,298,5.0,15.0,48,-99.99,,,-99.99,,2013-02-11 19:21:00,
2013-02-11 12:31:00,8.0,-8.0,-100.00,WNW,298,5.0,15.0,48,-99.99,,,-99.99,,2013-02-11 19:31:00,
2013-02-11 12:41:00,8.0,-8.0,-100.00,WNW,298,5.0,15.0,48,-99.99,,,-99.99,,2013-02-11 19:41:00,
2013-02-11 13:01:00,6.0,-7.0,-100.00,WNW,301,9.0,27.0,54,-99.99,,,-99.99,,2013-02-11 20:01:00,
2013-02-11 13:11:00,6.0,-7.0,-100.00,WNW,301,9.0,27.0,54,-99.99,,,-99.99,,2013-02-11 20:11:00,
2013-02-11 13:21:00,7.0,-7.0,-100.00,NW,309,12.0,25.0,52,-99.99,,,-99.99,,2013-02-11 20:21:00,
2013-02-11 13:31:00,8.0,-7.0,-100.00,NW,305,13.0,23.0,50,-99.99,,,-99.99,,2013-02-11 20:31:00,
2013-02-11 13:41:00,8.0,-7.0,-100.00,NW,305,13.0,23.0,50,-99.99,,,-99.99,,2013-02-11 20:41:00,
2013-02-11 13:52:00,9.0,-7.0,-100.00,NW,305,12.0,22.0,48,-99.99,,,-99.99,,2013-02-11 20:52:00,
2013-02-11 14:02:00,9.0,-7.0,-100.00,NW,304,12.0,25.0,47,-99.99,,,-99.99,,2013-02-11 21:02:00,
2013-02-11 14:11:00,9.0,-7.0,-100.00,NW,304,12.0,25.0,47,-99.99,,,-99.99,,2013-02-11 21:11:00,
2013-02-11 14:21:00,8.0,-7.0,-100.00,WNW,303,7.0,25.0,49,-99.99,,,-99.99,,2013-02-11 21:21:00,
2013-02-11 14:30:00,9.0,-6.0,-100.00,WNW,301,10.0,23.0,49,-99.99,,,-99.99,,2013-02-11 21:30:00,
2013-02-11 14:31:00,9.0,-7.0,-100.00,WNW,298,10.0,27.0,48,-99.99,,,-99.99,,2013-02-11 21:31:00,
2013-02-11 14:41:00,9.0,-7.0,-100.00,WNW,298,10.0,27.0,48,-99.99,,,-99.99,,2013-02-11 21:41:00,
2013-02-11 14:52:00,8.0,-7.0,-100.00,NW,314,11.0,24.0,49,-99.99,,,-99.99,,2013-02-11 21:52:00,
2013-02-11 15:01:00,9.0,-6.0,-100.00,WNW,301,10.0,23.0,49,-99.99,,,-99.99,,2013-02-11 22:01:00,
2013-02-11 15:11:00,9.0,-6.0,-100.00,WNW,301,10.0,23.0,49,-99.99,,,-99.99,,2013-02-11 22:11:00,
2013-02-11 15:21:00,9.0,-6.0,-100.00,WNW,301,10.0,23.0,49,-99.99,,,-99.99,,2013-02-11 22:21:00,
2013-02-11 15:52:00,8.0,-6.0,-100.00,NW,311,18.0,29.0,52,-99.99,,,-99.99,,2013-02-11 22:52:00,
2013-02-11 16:01:00,8.0,-5.0,-100.00,NW,316,15.0,24.0,54,-99.99,,,-99.99,,2013-02-11 23:01:00,
2013-02-11 16:11:00,8.0,-5.0,-100.00,NW,316,15.0,24.0,54,-99.99,,,-99.99,,2013-02-11 23:11:00,
2013-02-11 16:21:00,8.0,-5.0,-100.00,NW,318,17.0,26.0,55,-99.99,,,-99.99,,2013-02-11 23:21:00,
2013-02-11 16:31:00,7.0,-5.0,-100.00,NW,318,12.0,23.0,57,-99.99,,,-99.99,,2013-02-11 23:31:00,
2013-02-11 16:41:00,7.0,-5.0,-100.00,NW,318,12.0,23.0,57,-99.99,,,-99.99,,2013-02-11 23:41:00,
2013-02-11 16:52:00,7.0,-4.0,-100.00,NW,317,18.0,26.0,59,-99.99,,,-99.99,,2013-02-11 23:52:00,
2013-02-11 17:01:00,6.0,-5.0,-100.00,NW,319,18.0,32.0,61,-99.99,,,-99.99,,2013-02-12 00:01:00,
2013-02-11 17:11:00,6.0,-5.0,-100.00,NW,319,18.0,32.0,61,-99.99,,,-99.99,,2013-02-12 00:11:00,
2013-02-11 17:21:00,6.0,-4.0,-100.00,NW,319,16.0,28.0,63,-99.99,,,-99.99,,2013-02-12 00:21:00,
2013-02-11 17:32:00,5.0,-4.0,-100.00,NW,313,15.0,24.0,66,-99.99,,,-99.99,,2013-02-12 00:32:00,
2013-02-11 17:42:00,5.0,-4.0,-100.00,NW,313,15.0,24.0,66,-99.99,,,-99.99,,2013-02-12 00:42:00,
2013-02-11 17:52:00,4.0,-4.0,-100.00,NW,306,22.0,32.0,69,-99.99,,,-99.99,,2013-02-12 00:52:00,
2013-02-11 18:01:00,4.0,-3.0,-100.00,NW,305,20.0,27.0,71,-99.99,,,-99.99,,2013-02-12 01:01:00,
2013-02-11 18:11:00,4.0,-3.0,-100.00,NW,305,20.0,27.0,71,-99.99,,,-99.99,,2013-02-12 01:11:00,
2013-02-11 18:21:00,4.0,-3.0,-100.00,NW,307,21.0,28.0,71,-99.99,,,-99.99,,2013-02-12 01:21:00,
2013-02-11 18:31:00,3.0,-4.0,-100.00,NW,305,19.0,27.0,72,-99.99,,,-99.99,,2013-02-12 01:31:00,
2013-02-11 18:42:00,3.0,-4.0,-100.00,NW,305,19.0,27.0,72,-99.99,,,-99.99,,2013-02-12 01:42:00,
2013-02-11 18:52:00,3.0,-4.0,-100.00,NW,305,18.0,25.0,73,-99.99,,,-99.99,,2013-02-12 01:52:00,
2013-02-11 19:01:00,3.0,-3.0,-100.00,WNW,301,17.0,24.0,74,-99.99,,,-99.99,,2013-02-12 02:01:00,
2013-02-11 19:11:00,3.0,-3.0,-100.00,WNW,301,17.0,24.0,74,-99.99,,,-99.99,,2013-02-12 02:11:00,
2013-02-11 19:21:00,2.0,-4.0,-100.00,WNW,302,17.0,29.0,75,-99.99,,,-99.99,,2013-02-12 02:21:00,
2013-02-11 19:31:00,2.0,-4.0,-100.00,WNW,298,18.0,28.0,75,-99.99,,,-99.99,,2013-02-12 02:31:00,
2013-02-11 19:41:00,2.0,-4.0,-100.00,WNW,298,18.0,28.0,75,-99.99,,,-99.99,,2013-02-12 02:41:00,
2013-02-11 19:52:00,3.0,-3.0,-100.00,WNW,287,11.0,17.0,75,-99.99,,,-99.99,,2013-02-12 02:52:00,
2013-02-11 20:02:00,4.0,-3.0,-100.00,West,263,5.0,13.0,73,-99.99,,,-99.99,,2013-02-12 03:02:00,
2013-02-11 20:11:00,4.0,-3.0,-100.00,West,263,5.0,13.0,73,-99.99,,,-99.99,,2013-02-12 03:11:00,
2013-02-11 20:21:00,4.0,-3.0,-100.00,WSW,254,7.0,15.0,72,-99.99,,,-99.99,,2013-02-12 03:21:00,
2013-02-11 20:31:00,3.0,-4.0,-100.00,WSW,237,6.0,14.0,73,-99.99,,,-99.99,,2013-02-12 03:31:00,
2013-02-11 20:41:00,3.0,-4.0,-100.00,WSW,237,6.0,14.0,73,-99.99,,,-99.99,,2013-02-12 03:41:00,
2013-02-11 20:52:00,3.0,-3.0,-100.00,WSW,251,5.0,14.0,74,-99.99,,,-99.99,,2013-02-12 03:52:00,
2013-02-11 21:01:00,3.0,-4.0,-100.00,SW,225,4.0,15.0,73,-99.99,,,-99.99,,2013-02-12 04:01:00,
2013-02-11 21:11:00,3.0,-4.0,-100.00,SW,225,4.0,15.0,73,-99.99,,,-99.99,,2013-02-12 04:11:00,
2013-02-11 21:21:00,2.0,-4.0,-100.00,West,265,9.0,19.0,75,-99.99,,,-99.99,,2013-02-12 04:21:00,
2013-02-11 21:31:00,2.0,-4.0,-100.00,West,272,9.0,21.0,76,-99.99,,,-99.99,,2013-02-12 04:31:00,
2013-02-11 21:41:00,2.0,-4.0,-100.00,West,272,9.0,21.0,76,-99.99,,,-99.99,,2013-02-12 04:41:00,
2013-02-11 21:52:00,1.0,-3.0,-100.00,WNW,291,11.0,18.0,81,-99.99,,,-99.99,,2013-02-12 04:52:00,
2013-02-11 22:01:00,3.0,-1.0,-100.00,WNW,289,9.0,17.0,81,-99.99,,,-99.99,,2013-02-12 05:01:00,
2013-02-11 22:11:00,3.0,-1.0,-100.00,WNW,289,9.0,17.0,81,-99.99,,,-99.99,,2013-02-12 05:11:00,
2013-02-11 22:21:00,5.0,0.0,-100.00,West,280,12.0,18.0,81,-99.99,,,-99.99,,2013-02-12 05:21:00,
2013-02-11 22:31:00,5.0,0.0,-100.00,WNW,285,10.0,18.0,80,-99.99,,,-99.99,,2013-02-12 05:31:00,
2013-02-11 22:42:00,5.0,0.0,-100.00,WNW,285,10.0,18.0,80,-99.99,,,-99.99,,2013-02-12 05:42:00,
2013-02-11 22:52:00,4.0,-1.0,-100.00,WNW,291,13.0,20.0,80,-99.99,,,-99.99,,2013-02-12 05:52:00,
2013-02-11 23:01:00,4.0,-1.0,-100.00,WNW,300,10.0,18.0,80,-99.99,,,-99.99,,2013-02-12 06:01:00,
2013-02-11 23:12:00,3.0,-2.0,-100.00,WNW,288,7.0,12.0,78,-99.99,,,-99.99,,2013-02-12 06:12:00,
2013-02-11 23:21:00,3.0,-2.0,-100.00,WNW,288,7.0,12.0,78,-99.99,,,-99.99,,2013-02-12 06:21:00,
2013-02-11 23:31:00,2.0,-2.0,-100.00,WNW,294,8.0,15.0,82,-99.99,,,-99.99,,2013-02-12 06:31:00,
2013-02-11 23:42:00,2.0,-2.0,-100.00,WNW,294,8.0,15.0,82,-99.99,,,-99.99,,2013-02-12 06:42:00,
2013-02-11 23:52:00,3.0,-1.0,-100.00,NW,304,11.0,20.0,82,-99.99,,,-99.99,,2013-02-12 06:52:00,